Latest Weather Observations for Laverton

IDW60801

Issued at 9:54 pm WST Saturday 23 January 2021 (issued every 10 minutes, with the page automatically refreshed every 10 minutes)

About weather observations | Map of weather stations | Latest weather observations for WA | Other Formats
Station Details ID: 012305 Name: LAVERTON AERO Lat: -28.61 Lon: 122.42 Height: 464.3 m
Data from the previous 72 hours. | See also: Recent months at Laverton
Date/Time
WST
Temp
°C
App
Temp
°C
Dew
Point
°C
Rel
Hum
%
Delta-T
°C
Wind Press
QNH
hPa
Press
MSL
hPa
Rain since
9am
mm
Dir  Spd
km/h
Gust
km/h
Spd
kts
Gust
kts
23/09:30pm 25.6 22.2 15.9 55 6.0 NE 28 39 15 21 1005.8 1002.4 0.0
23/09:00pm 26.3 23.2 16.5 54 6.2 NE 28 37 15 20 1005.5 1002.1 0.0
23/08:30pm 27.1 23.1 16.7 53 6.6 NE 33 44 18 24 1005.5 1002.1 0.0
23/08:00pm 28.6 25.2 16.8 48 7.5 NE 30 41 16 22 1005.2 1001.8 0.0
23/07:30pm 29.5 27.1 16.3 45 8.4 NE 24 33 13 18 1004.8 1001.4 0.0
23/07:00pm 30.2 27.7 16.2 42 8.9 NE 24 33 13 18 1004.6 1001.2 0.0
23/06:30pm 30.9 28.6 15.7 39 9.6 NE 22 32 12 17 1004.4 1001.0 0.0
23/06:00pm 31.8 29.7 15.3 37 10.4 NE 20 28 11 15 1004.3 1000.9 0.0
23/05:30pm 32.2 30.7 15.2 35 10.7 NNE 17 26 9 14 1003.9 1000.5 0.0
23/05:00pm 32.6 30.5 15.1 34 11.1 NNE 20 32 11 17 1003.5 1000.1 0.0
23/04:30pm 32.6 30.1 15.1 34 11.0 NNE 22 37 12 20 1003.3 999.9 0.0
23/04:00pm 32.9 30.3 15.0 34 11.3 N 22 32 12 17 1003.4 1000.0 0.0
23/03:30pm 32.1 29.1 14.7 35 10.9 NNE 24 43 13 23 1003.8 1000.4 0.0
23/03:00pm 32.5 29.6 15.1 35 11.0 NNE 24 33 13 18 1004.1 1000.7 0.0
23/02:30pm 32.0 28.7 15.1 36 10.6 NNE 26 35 14 19 1004.3 1000.9 0.0
23/02:00pm 32.9 29.9 15.8 35 10.9 N 26 37 14 20 1004.6 1001.2 0.0
23/01:30pm 32.0 28.9 15.5 37 10.4 N 26 41 14 22 1004.8 1001.4 0.0
23/01:00pm 31.3 27.6 16.1 40 9.7 N 30 41 16 22 1005.2 1001.8 0.0
23/12:30pm 31.6 27.5 16.0 39 9.9 N 32 41 17 22 1005.6 1002.2 0.0
23/12:00pm 30.5 26.2 15.4 40 9.5 N 32 46 17 25 1005.9 1002.5 0.0
23/11:33am 30.1 25.4 15.8 42 9.0 NNE 35 56 19 30 1006.3 1002.9 0.0
23/11:30am 30.5 26.6 16.9 44 8.7 NNE 33 46 18 25 1006.4 1003.0 0.0
23/11:11am 30.2 26.0 16.2 42 8.9 NNE 33 52 18 28 1006.7 1003.3 0.0
23/11:00am 30.2 26.0 16.2 42 8.9 N 33 46 18 25 1006.8 1003.4 0.0
23/10:30am 28.8 24.2 16.0 45 8.1 N 35 46 19 25 1007.2 1003.9 0.0
23/10:00am 28.7 24.3 16.6 48 7.7 NNE 35 52 19 28 1007.1 1003.8 0.0
23/09:30am 28.0 22.6 16.0 48 7.5 NNE 39 56 21 30 1007.4 1004.0 0.0
23/09:00am 27.1 22.3 16.7 53 6.6 NNE 37 48 20 26 1007.5 1004.1 10.0
23/08:30am 26.5 23.2 18.4 61 5.2 NNE 33 44 18 24 1007.6 1004.2 9.8
23/08:00am 25.5 22.9 19.4 69 4.0 NNE 32 43 17 23 1007.6 1004.2 9.8
23/07:30am 24.2 21.4 19.5 75 3.1 NNE 33 43 18 23 1007.5 1004.1 9.8
23/07:00am 23.4 23.3 20.0 81 2.2 NE 20 30 11 16 1007.6 1004.2 9.8
23/06:30am 22.7 21.6 19.5 82 2.1 NE 24 33 13 18 1007.5 1004.1 9.8
23/06:00am 22.3 21.7 18.9 81 2.2 NE 20 28 11 15 1007.0 1003.7 9.8
23/05:30am 22.3 22.0 19.1 82 2.1 ENE 19 30 10 16 1006.8 1003.4 9.8
23/05:00am 22.3 21.9 18.9 81 2.2 NE 19 24 10 13 1006.5 1003.1 9.8
23/04:30am 22.2 22.4 19.4 84 1.8 NE 17 24 9 13 1006.0 1002.6 9.8
23/04:00am 22.2 22.0 19.7 86 1.6 NE 20 32 11 17 1005.7 1002.3 9.8
23/03:30am 22.1 20.5 20.0 88 1.4 NE 28 39 15 21 1005.7 1002.3 9.8
23/03:00am 23.8 21.8 18.4 72 3.5 NE 26 35 14 19 1005.6 1002.2 9.8
23/02:30am 23.5 24.7 19.0 76 2.9 NNE 11 13 6 7 1005.6 1002.2 9.8
23/02:00am 22.9 24.5 19.9 83 2.0 NNE 11 13 6 7 1005.7 1002.3 9.8
23/01:30am 23.1 23.0 18.8 77 2.8 N 17 22 9 12 1006.0 1002.6 9.8
23/01:00am 23.3 23.7 18.2 73 3.3 N 13 17 7 9 1006.4 1003.0 9.8
23/12:30am 23.0 23.6 18.5 76 2.9 N 13 17 7 9 1006.8 1003.4 9.8
23/12:00am 23.0 22.3 18.7 77 2.8 NE 20 28 11 15 1007.7 1004.3 9.8
 
Date/Time
WST
Temp
°C
App
Temp
°C
Dew
Point
°C
Rel
Hum
%
Delta-T
°C
Wind Press
QNH
hPa
Press
MSL
hPa
Rain since
9am
mm
Dir  Spd
km/h
Gust
km/h
Spd
kts
Gust
kts
22/11:30pm 22.0 19.1 20.1 89 1.2 NE 35 46 19 25 1008.8 1005.4 9.8
22/11:00pm 21.9 19.5 21.1 95 0.5 NE 35 48 19 26 1009.7 1006.3 9.6
22/10:30pm 21.7 19.1 20.7 94 0.7 NE 35 44 19 24 1010.0 1006.6 9.2
22/10:00pm 22.3 21.6 20.2 88 1.4 N 24 32 13 17 1009.8 1006.4 8.8
22/09:30pm 22.0 22.2 20.6 92 0.9 NE 20 26 11 14 1010.0 1006.6 8.4
22/09:00pm 22.6 25.8 20.5 88 1.4 NNW 4 13 2 7 1010.1 1006.7 7.6
22/08:30pm 22.6 23.5 19.2 81 2.2 WSW 13 20 7 11 1009.3 1006.0 7.0
22/08:00pm 22.9 22.5 19.3 80 2.3 WSW 20 24 11 13 1009.7 1006.3 6.8
22/07:30pm 23.3 22.3 18.8 76 2.9 W 22 33 12 18 1010.1 1006.7 6.6
22/07:00pm 24.2 24.1 19.5 75 3.1 W 19 24 10 13 1009.8 1006.4 6.2
22/06:30pm 24.7 25.9 19.8 74 3.2 W 13 17 7 9 1009.0 1005.7 6.2
22/06:00pm 25.5 24.6 18.2 64 4.7 SSW 20 28 11 15 1008.0 1004.6 6.2
22/05:30pm 26.0 25.3 19.4 67 4.3 SSW 22 32 12 17 1006.8 1003.4 6.2
22/05:00pm 25.7 24.1 19.3 67 4.2 WSW 26 35 14 19 1006.6 1003.2 6.0
22/04:30pm 28.1 25.8 19.3 58 5.8 ESE 30 43 16 23 1004.6 1001.2 3.8
22/04:00pm 27.5 25.3 19.6 62 5.2 SE 30 35 16 19 1004.0 1000.6 3.4
22/03:40pm 26.5 23.6 18.9 63 5.0 SW 32 50 17 27 1004.3 1000.9 1.4
22/03:35pm 28.8 25.9 18.0 52 7.0 SSE 30 44 16 24 1003.6 1000.2 0.0
22/03:30pm 34.9 29.6 12.5 25 13.7 ESE 32 46 17 25 1002.9 999.4 0.0
22/03:22pm 36.0 32.9 12.3 24 14.5 SSE 20 44 11 24 1002.3 998.9 0.0
22/03:00pm 39.2 36.1 8.8 16 18.0 SSW 15 20 8 11 1002.2 998.8 0.0
22/02:30pm 39.9 36.4 7.4 14 18.8 SSW 15 20 8 11 1002.1 998.7 0.0
22/02:00pm 39.9 36.3 8.4 15 18.6 W 17 30 9 16 1002.6 999.2 0.0
22/01:30pm 36.1 32.5 11.7 23 14.8 NW 22 39 12 21 1003.8 1000.4 0.0
22/01:00pm 39.5 35.7 9.0 16 18.1 NW 19 28 10 15 1004.2 1000.8 0.0
22/12:30pm 41.0 34.4 6.0 12 20.0 NNW 30 43 16 23 1004.9 1001.5 0.0
22/12:00pm 41.9 35.5 5.4 11 20.8 WNW 28 37 15 20 1005.1 1001.7 0.0
22/11:30am 40.5 34.7 -0.1 8 21.1 W 20 28 11 15 1005.4 1002.0 0.0
22/11:00am 40.3 35.4 -0.3 8 21.1 NW 15 28 8 15 1005.9 1002.5 0.0
22/10:30am 40.5 35.3 -0.1 8 21.1 NNW 17 28 9 15 1006.2 1002.8 0.0
22/10:00am 38.5 32.9 0.0 9 19.9 N 19 26 10 14 1006.5 1003.1 0.0
22/09:30am 37.4 32.7 0.7 10 19.0 N 15 26 8 14 1006.7 1003.3 0.0
22/09:00am 36.6 31.0 0.1 10 18.7 N 19 28 10 15 1006.9 1003.5 0.0
22/08:30am 36.6 31.4 0.1 10 18.6 NNE 17 30 9 16 1007.1 1003.8 0.0
22/08:00am 36.1 31.0 1.0 11 18.1 E 17 22 9 12 1006.9 1003.5 0.0
22/07:30am 34.6 27.8 1.1 12 17.1 E 26 32 14 17 1007.1 1003.8 0.0
22/07:00am 33.7 27.0 1.5 13 16.5 E 26 37 14 20 1007.1 1003.8 0.0
22/06:30am 31.4 30.2 6.5 21 13.7 ESE 2 7 1 4 1007.1 1003.8 0.0
22/06:00am 30.2 26.6 6.8 23 12.9 NE 15 19 8 10 1007.0 1003.7 0.0
22/05:30am 29.9 26.0 7.2 24 12.5 ENE 17 20 9 11 1006.5 1003.1 0.0
22/05:00am 29.4 26.1 7.9 26 12.0 ENE 15 17 8 9 1006.2 1002.8 0.0
22/04:30am 30.2 26.1 8.0 25 12.4 ENE 19 20 10 11 1005.8 1002.4 0.0
22/04:00am 30.2 26.7 8.6 26 12.2 E 17 20 9 11 1005.7 1002.3 0.0
22/03:30am 30.2 26.7 8.6 26 12.2 E 17 24 9 13 1005.5 1002.1 0.0
22/03:00am 30.3 26.5 9.2 27 12.1 E 19 22 10 12 1005.7 1002.3 0.0
22/02:30am 30.8 27.5 9.6 27 12.2 E 17 20 9 11 1005.7 1002.3 0.0
22/02:00am 31.0 27.4 9.8 27 12.3 ESE 19 24 10 13 1005.8 1002.4 0.0
22/01:30am 29.7 28.0 9.8 29 11.4 SE 9 13 5 7 1005.9 1002.5 0.0
22/01:00am 30.4 28.3 9.8 28 11.9 E 11 13 6 7 1006.3 1002.9 0.0
22/12:30am 31.6 29.9 9.8 26 12.6 ESE 9 11 5 6 1006.7 1003.3 0.0
22/12:00am 32.1 29.4 10.2 26 12.8 SSE 15 20 8 11 1006.9 1003.5 0.0
 
Date/Time
WST
Temp
°C
App
Temp
°C
Dew
Point
°C
Rel
Hum
%
Delta-T
°C
Wind Press
QNH
hPa
Press
MSL
hPa
Rain since
9am
mm
Dir  Spd
km/h
Gust
km/h
Spd
kts
Gust
kts
21/11:30pm 32.8 30.1 8.9 23 13.7 SSW 13 19 7 10 1006.8 1003.4 0.0
21/11:00pm 33.4 30.3 8.8 22 14.2 SW 15 19 8 10 1007.2 1003.9 0.0
21/10:30pm 33.5 29.9 8.2 21 14.4 SW 17 20 9 11 1007.5 1004.1 0.0
21/10:00pm 33.4 30.3 8.8 22 14.2 SSW 15 22 8 12 1008.0 1004.6 0.0
21/09:30pm 34.7 31.7 7.7 19 15.3 W 13 28 7 15 1008.2 1004.8 0.0
21/09:00pm 34.5 31.3 6.7 18 15.6 NNE 13 24 7 13 1007.1 1003.8 0.0
21/08:30pm 33.8 31.0 8.4 21 14.5 NW 13 22 7 12 1007.5 1004.1 0.0
21/08:00pm 32.6 31.5 10.0 25 13.2 N 6 15 3 8 1007.4 1004.0 0.0
21/07:30pm 32.8 30.1 10.2 25 13.2 NE 15 33 8 18 1007.6 1004.2 0.0
21/07:21pm 32.5 28.7 11.1 27 12.7 NNW 22 37 12 20 1008.2 1004.8 0.0
21/07:00pm 34.4 30.2 9.6 22 14.5 NW 22 44 12 24 1007.8 1004.4 0.0
21/06:30pm 32.8 29.7 13.4 30 11.9 WSW 22 30 12 16 1007.8 1004.4 0.0
21/06:00pm 36.1 32.0 8.0 18 16.2 SW 19 32 10 17 1006.6 1003.2 0.0
21/05:30pm 37.3 33.0 5.3 14 17.7 W 17 43 9 23 1006.1 1002.7 0.0
21/05:00pm 38.0 33.4 3.7 12 18.7 NNW 17 26 9 14 1005.8 1002.4 0.0
21/04:38pm 37.0 30.0 6.1 15 17.3 NNW 32 52 17 28 1005.9 1002.5 0.0
21/04:32pm 36.9 33.1 6.0 15 17.3 NW 15 52 8 28 1005.8 1002.4 0.0
21/04:30pm 38.4 35.6 5.1 13 18.5 WNW 9 39 5 21 1005.9 1002.5 0.0
21/04:00pm 39.1 34.2 1.9 10 19.8 ENE 17 24 9 13 1005.7 1002.3 0.0
21/03:30pm 38.4 34.4 5.1 13 18.5 W 15 33 8 18 1006.0 1002.6 0.0
21/03:00pm 41.0 35.7 1.9 9 21.1 NW 19 37 10 20 1005.6 1002.2 0.0
21/02:30pm 41.4 35.6 2.2 9 21.2 WNW 22 30 12 16 1006.0 1002.6 0.0
21/02:00pm 40.9 34.6 1.8 9 21.0 WNW 24 39 13 21 1006.4 1003.0 0.0
21/01:30pm 40.0 34.0 1.1 9 20.5 WNW 22 39 12 21 1006.7 1003.3 0.0
21/01:00pm 40.9 34.4 0.2 8 21.4 NNW 24 43 13 23 1007.0 1003.7 0.0
21/12:30pm 40.7 33.4 0.0 8 21.2 NNW 28 37 15 20 1007.2 1003.9 0.0
21/12:00pm 41.6 35.2 0.7 8 21.7 NW 24 44 13 24 1007.6 1004.2 0.0
21/11:30am 40.2 32.9 -0.3 8 21.0 NW 28 41 15 22 1008.1 1004.7 0.0
21/11:00am 40.0 32.6 -0.5 8 20.9 NNW 28 46 15 25 1008.4 1005.0 0.0
21/10:30am 40.2 33.9 1.3 9 20.6 NW 24 35 13 19 1008.7 1005.3 0.0
21/10:00am 39.0 31.8 0.4 9 20.1 N 28 43 15 23 1008.8 1005.4 0.0
21/09:30am 38.3 32.7 -0.1 9 19.7 NNW 19 26 10 14 1009.1 1005.8 0.0
21/09:00am 36.8 30.8 -1.2 9 19.0 NNW 20 32 11 17 1009.3 1006.0 0.0
21/08:30am 35.9 30.0 -1.9 9 18.6 N 19 24 10 13 1009.3 1006.0 0.0
21/08:00am 34.8 29.2 0.0 11 17.6 NNE 19 24 10 13 1009.1 1005.8 0.0
21/07:30am 33.5 28.1 1.3 13 16.4 NE 19 24 10 13 1009.1 1005.8 0.0
21/07:00am 30.9 25.8 3.0 17 14.4 NE 19 24 10 13 1009.2 1005.9 0.0
21/06:30am 29.2 24.5 5.3 22 12.7 ENE 19 22 10 12 1009.2 1005.9 0.0
21/06:00am 27.5 23.3 5.7 25 11.6 E 17 20 9 11 1009.3 1006.0 0.0
21/05:30am 27.2 23.1 6.0 26 11.3 ENE 17 20 9 11 1009.3 1006.0 0.0
21/05:00am 25.8 21.6 5.9 28 10.5 E 17 17 9 9 1009.2 1005.9 0.0
21/04:30am 24.9 21.3 5.2 28 10.2 E 13 15 7 8 1009.2 1005.9 0.0
21/04:00am 26.3 25.1 4.7 25 11.2 CALM 0 0 0 0 1009.2 1005.9 0.0
21/03:30am 27.1 25.3 5.4 25 11.4 E 4 7 2 4 1009.0 1005.7 0.0
21/03:00am 29.0 25.3 6.4 24 12.3 ESE 15 19 8 10 1008.5 1005.1 0.0
21/02:30am 28.9 26.3 6.3 24 12.2 E 9 13 5 7 1008.9 1005.5 0.0
21/02:00am 29.9 26.1 5.9 22 13.0 ESE 15 19 8 10 1009.2 1005.9 0.0
21/01:30am 30.2 26.4 4.0 19 13.7 SSE 13 17 7 9 1009.3 1006.0 0.0
21/01:00am 31.1 27.3 4.0 18 14.3 SSE 13 17 7 9 1009.7 1006.3 0.0
21/12:30am 30.9 26.3 1.3 15 14.9 SSE 15 20 8 11 1009.8 1006.4 0.0
21/12:00am 30.3 26.5 1.7 16 14.4 SSW 11 13 6 7 1009.7 1006.3 0.0
 
Date/Time
WST
Temp
°C
App
Temp
°C
Dew
Point
°C
Rel
Hum
%
Delta-T
°C
Wind Press
QNH
hPa
Press
MSL
hPa
Rain since
9am
mm
Dir  Spd
km/h
Gust
km/h
Spd
kts
Gust
kts
20/11:30pm 30.5 27.5 1.9 16 14.5 ESE 7 9 4 5 1009.5 1006.2 0.0
20/11:00pm 30.9 28.1 2.2 16 14.7 E 6 9 3 5 1009.5 1006.2 0.0
20/10:30pm 30.9 26.6 1.3 15 14.9 E 13 15 7 8 1009.3 1006.0 0.0
20/10:00pm 32.3 28.4 1.4 14 15.7 NE 11 15 6 8 1009.3 1006.0 0.0

Other formats

Comma delimited format used in spreadsheet applications
http://www.bom.gov.au/fwo/IDW60801/IDW60801.94449.axf

JavaScript Object Notation format (JSON) in row-major order
http://www.bom.gov.au/fwo/IDW60801/IDW60801.94449.json

Data quality

Most of these data are generated automatically and are frequently updated. Quality checks on data are not normally performed. It is possible for incorrect values to appear. Refer to information at About Latest Weather Observations and please check the disclaimer before using these data.